Time;durP1;ratioP1;P1;durP2;ratioP2;P2;SDS_P1;SDS_P2;PMS_P1;PMS_P2;Temp;Humidity;BMP_temperature;BMP_pressure;BME280_temperature;BME280_humidity;BME280_pressure;Samples;Min_cycle;Max_cycle;Signal;HPM_P1;HPM_P2
2023/02/16 00:01:16;;;;;;;0.00;0.00;;;;;;;6.85;98.57;101010.88;6162635;23;20009;-75
2023/02/16 00:03:41;;;;;;;0.00;0.00;;;;;;;6.85;98.32;101010.88;6165538;23;20008;-75
2023/02/16 00:06:13;;;;;;;0.00;0.00;;;;;;;6.95;98.33;101022.06;6143145;23;20033;-73
2023/02/16 00:08:39;;;;;;;0.00;0.00;;;;;;;6.88;98.54;101016.72;6194712;23;20008;-74
2023/02/16 00:14:10;;;;;;;0.00;0.00;;;;;;;7.03;97.86;101020.94;6191338;23;20051;-73
2023/02/16 00:16:36;;;;;;;0.00;0.00;;;;;;;7.07;98.86;101020.25;6162732;23;20454;-72
2023/02/16 00:19:18;;;;;;;0.00;0.00;;;;;;;6.97;98.45;100987.34;6137675;23;20009;-73
2023/02/16 00:21:44;;;;;;;0.00;0.00;;;;;;;7.09;98.45;101001.00;6160175;23;20004;-73
2023/02/16 00:24:19;;;;;;;0.00;0.00;;;;;;;7.09;98.36;100981.97;6188060;23;20001;-75
2023/02/16 00:26:47;;;;;;;0.00;0.00;;;;;;;7.28;97.94;101004.50;6177057;23;20021;-75
2023/02/16 00:29:44;;;;;;;0.00;0.00;;;;;;;7.33;98.58;101002.78;6191429;23;20469;-72
2023/02/16 00:32:11;;;;;;;0.00;0.00;;;;;;;7.26;98.33;100976.72;6188799;23;20016;-74
2023/02/16 00:34:47;;;;;;;0.00;0.00;;;;;;;7.43;98.44;100991.34;6182899;23;19997;-73
2023/02/16 00:37:13;;;;;;;0.08;0.08;;;;;;;7.32;97.71;100959.47;6188589;23;20096;-72
2023/02/16 00:39:43;;;;;;;0.00;0.00;;;;;;;7.50;98.24;100972.16;6191329;23;20012;-73
2023/02/16 00:42:25;;;;;;;0.00;0.00;;;;;;;7.50;97.83;100970.31;6189232;23;20600;-78
2023/02/16 00:44:57;;;;;;;0.00;0.00;;;;;;;7.47;98.12;100959.84;6149132;23;20040;-74
2023/02/16 00:47:31;;;;;;;0.00;0.00;;;;;;;7.48;97.86;100961.53;6132365;23;20016;-72
2023/02/16 00:50:05;;;;;;;0.00;0.00;;;;;;;7.48;97.62;100950.63;6159818;23;20001;-73
2023/02/16 00:52:57;;;;;;;0.00;0.00;;;;;;;7.39;97.44;100935.72;6162930;23;20042;-73
2023/02/16 00:55:41;;;;;;;0.00;0.00;;;;;;;7.32;97.73;100926.81;6159588;23;20048;-73
2023/02/16 01:02:14;;;;;;;0.00;0.00;;;;;;;7.36;97.57;100941.63;6043886;23;20018;-74
2023/02/16 01:04:39;;;;;;;0.00;0.00;;;;;;;7.10;98.13;100904.75;6038961;23;20474;-74
2023/02/16 01:17:54;;;;;;;0.00;0.00;;;;;;;6.96;98.58;100934.00;5917813;24;20437;-74
2023/02/16 01:20:46;;;;;;;0.00;0.00;;;;;;;6.78;98.96;100919.38;6037372;23;20007;-72
2023/02/16 01:23:34;;;;;;;;;;;;;;;;;;;;;
2023/02/16 01:26:54;;;;;;;;;;;;;;;;;;;;;
2023/02/16 01:29:45;;;;;;;;;;;;;;;;;;;;;
2023/02/16 01:32:52;;;;;;;;;;;;;;;;;;;;;
2023/02/16 01:36:02;;;;;;;;;;;;;;;;;;;;;
2023/02/16 01:38:37;;;;;;;0.00;0.00;;;;;;;6.55;100.00;100886.66;6071917;23;20052;-72
2023/02/16 01:41:27;;;;;;;0.00;0.00;;;;;;;6.69;100.00;100898.16;6114130;23;20017;-74
2023/02/16 01:44:38;;;;;;;;;;;;;;;;;;;;;
2023/02/16 01:47:42;;;;;;;0.00;0.00;;;;;;;6.64;100.00;100885.28;6104708;23;20042;-74
2023/02/16 01:51:01;;;;;;;0.00;0.00;;;;;;;6.45;100.00;100843.72;6109710;23;20022;-73
2023/02/16 01:53:40;;;;;;;0.00;0.00;;;;;;;6.72;100.00;100876.81;6042988;23;20113;-74
2023/02/16 01:59:59;;;;;;;0.00;0.00;;;;;;;6.79;100.00;100877.56;6041641;23;20062;-73
2023/02/16 02:05:53;;;;;;;0.00;0.00;;;;;;;6.64;100.00;100853.50;6156149;23;20011;-73
2023/02/16 02:08:26;;;;;;;0.00;0.00;;;;;;;6.84;100.00;100878.75;6140117;23;20015;-73
2023/02/16 02:11:14;;;;;;;0.00;0.00;;;;;;;6.82;100.00;100882.53;6164168;23;20047;-73
2023/02/16 02:13:52;;;;;;;0.00;0.00;;;;;;;6.81;100.00;100886.31;6140499;23;20005;-74
2023/02/16 02:16:33;;;;;;;0.00;0.00;;;;;;;6.59;100.00;100852.53;6163553;23;20009;-74
2023/02/16 02:19:10;;;;;;;0.00;0.00;;;;;;;6.80;100.00;100873.78;6164612;23;20005;-74
2023/02/16 02:25:18;;;;;;;0.00;0.00;;;;;;;6.85;100.00;100858.66;6152841;23;20043;-71
2023/02/16 02:28:00;;;;;;;0.00;0.00;;;;;;;6.96;100.00;100866.84;6163843;23;20092;-73
2023/02/16 02:30:55;;;;;;;0.00;0.00;;;;;;;6.79;100.00;100828.63;6162801;23;20013;-73
2023/02/16 03:02:38;;;;;;;;;;;;;;;;;;;;;
2023/02/16 03:30:55;;;;;;;0.00;0.00;;;;;;;7.50;100.00;100801.56;5782326;24;20469;-74
2023/02/16 03:37:48;;;;;;;0.00;0.00;;;;;;;7.24;100.00;100736.72;5826655;24;20072;-74
2023/02/16 03:45:02;;;;;;;0.00;0.00;;;;;;;7.29;100.00;100745.00;5754683;24;20377;-73
2023/02/16 04:08:56;;;;;;;;;;;;;;;;;;;;;
2023/02/16 04:15:25;;;;;;;;;;;;;;;;;;;;;
2023/02/16 04:18:49;;;;;;;;;;;;;;;;;;;;;
2023/02/16 04:31:37;;;;;;;;;;;;;;;;;;;;;
2023/02/16 04:37:50;;;;;;;0.00;0.00;;;;;;;7.63;100.00;100726.19;5921813;24;20007;-76
2023/02/16 04:40:17;;;;;;;0.00;0.00;;;;;;;7.66;100.00;100722.97;5915612;23;20463;-74
2023/02/16 04:42:43;;;;;;;0.00;0.00;;;;;;;7.63;100.00;100718.00;6071621;23;20007;-74
2023/02/16 04:45:18;;;;;;;0.00;0.00;;;;;;;7.61;100.00;100714.72;6084171;23;20016;-74
2023/02/16 04:47:43;;;;;;;0.10;0.10;;;;;;;7.58;100.00;100715.16;6153075;23;20020;-74
2023/02/16 04:50:11;;;;;;;0.00;0.00;;;;;;;7.53;100.00;100696.84;6139525;23;20013;-74
2023/02/16 04:52:41;;;;;;;0.00;0.00;;;;;;;7.48;99.53;100711.16;6166386;23;20005;-75
2023/02/16 04:55:09;;;;;;;0.00;0.00;;;;;;;7.48;99.18;100692.13;6192972;23;20005;-74
2023/02/16 04:57:38;;;;;;;0.00;0.00;;;;;;;7.59;98.23;100695.06;6139733;23;20016;-74
2023/02/16 05:00:06;;;;;;;0.00;0.00;;;;;;;7.54;96.87;100694.97;6165474;23;20001;-73
2023/02/16 05:02:32;;;;;;;0.00;0.00;;;;;;;7.69;95.92;100707.00;6187951;23;20044;-73
2023/02/16 05:05:00;;;;;;;0.00;0.00;;;;;;;7.55;95.35;100691.16;6165469;23;20332;-73
2023/02/16 05:07:25;;;;;;;0.00;0.00;;;;;;;7.54;95.50;100697.69;6112995;23;20032;-74
2023/02/16 05:09:51;;;;;;;0.00;0.00;;;;;;;7.63;95.35;100707.13;6165899;23;20416;-74
2023/02/16 05:15:04;;;;;;;0.00;0.00;;;;;;;7.56;95.69;100706.41;6191508;23;20011;-74
2023/02/16 05:17:30;;;;;;;0.00;0.00;;;;;;;7.50;96.38;100706.31;6161934;23;20036;-73
2023/02/16 05:19:58;;;;;;;0.00;0.00;;;;;;;7.50;97.29;100714.50;6163648;23;20005;-72
2023/02/16 05:22:27;;;;;;;0.00;0.00;;;;;;;7.51;97.19;100716.13;6191500;23;20008;-72
2023/02/16 05:24:52;;;;;;;0.00;0.00;;;;;;;7.42;97.49;100712.13;6189570;23;20064;-72
2023/02/16 05:27:21;;;;;;;0.00;0.00;;;;;;;7.55;98.37;100726.53;6141454;23;20297;-73
2023/02/16 05:29:47;;;;;;;0.00;0.00;;;;;;;7.40;98.69;100697.91;6189034;23;20027;-74
2023/02/16 05:32:15;;;;;;;0.00;0.00;;;;;;;7.45;98.28;100705.38;6165242;23;20008;-72
2023/02/16 05:34:44;;;;;;;0.00;0.00;;;;;;;7.46;99.24;100726.91;6162872;23;20136;-73
2023/02/16 05:37:13;;;;;;;0.00;0.00;;;;;;;7.49;100.00;100729.16;6190565;23;20063;-73
2023/02/16 05:39:39;;;;;;;0.00;0.00;;;;;;;7.51;100.00;100727.00;6160082;23;20005;-73
2023/02/16 05:42:05;;;;;;;0.00;0.00;;;;;;;7.37;100.00;100720.16;6190723;23;20082;-73
2023/02/16 05:44:32;;;;;;;0.00;0.00;;;;;;;7.48;100.00;100732.94;6190458;23;20484;-73
2023/02/16 05:47:00;;;;;;;0.00;0.00;;;;;;;7.35;100.00;100708.69;6158095;23;20032;-74
2023/02/16 05:49:28;;;;;;;0.00;0.00;;;;;;;7.25;100.00;100694.88;6137341;23;20009;-73
2023/02/16 05:51:54;;;;;;;0.00;0.00;;;;;;;7.38;100.00;100713.66;6109044;23;20006;-74
2023/02/16 05:54:19;;;;;;;0.00;0.00;;;;;;;7.35;100.00;100705.97;6160591;23;20008;-74
2023/02/16 05:56:47;;;;;;;0.00;0.00;;;;;;;7.32;100.00;100696.38;6132007;23;20009;-73
2023/02/16 05:59:14;;;;;;;0.00;0.00;;;;;;;7.30;100.00;100693.09;6135789;23;20008;-74
2023/02/16 06:01:40;;;;;;;0.00;0.00;;;;;;;7.28;100.00;100678.06;6162026;23;20029;-74
2023/02/16 06:04:14;;;;;;;0.00;0.00;;;;;;;7.31;100.00;100683.03;6158723;23;20005;-74
2023/02/16 06:06:40;;;;;;;0.00;0.00;;;;;;;7.37;100.00;100692.94;6134638;23;20017;-73
2023/02/16 06:09:07;;;;;;;0.00;0.00;;;;;;;7.31;100.00;100674.88;6132139;23;20013;-72
2023/02/16 06:11:36;;;;;;;0.00;0.00;;;;;;;7.35;100.00;100684.22;6159638;23;20013;-75
2023/02/16 06:14:16;;;;;;;0.00;0.00;;;;;;;7.27;100.00;100676.41;6160022;23;20001;-76
2023/02/16 06:18:13;;;;;;;;;;;;;;;;;;;;;
2023/02/16 06:31:14;;;;;;;0.00;0.00;;;;;;;7.44;100.00;100687.41;6098900;23;20006;-78
2023/02/16 06:44:47;;;;;;;;;;;;;;;;;;;;;
2023/02/16 06:54:34;;;;;;;;;;;;;;;;;;;;;
2023/02/16 06:57:23;;;;;;;0.00;0.00;;;;;;;7.60;100.00;100656.72;5903557;24;20032;-77
2023/02/16 07:01:21;;;;;;;0.00;0.00;;;;;;;7.64;100.00;100659.78;5777280;24;20015;-77
2023/02/16 07:04:26;;;;;;;;;;;;;;;;;;;;;
2023/02/16 07:10:16;;;;;;;0.00;0.00;;;;;;;7.70;100.00;100650.66;5814728;24;20042;-80
2023/02/16 07:12:54;;;;;;;0.00;0.00;;;;;;;7.73;100.00;100652.88;5986829;24;20035;-80
2023/02/16 07:15:45;;;;;;;0.00;0.00;;;;;;;7.97;100.00;100688.19;5966088;24;19992;-79
2023/02/16 07:18:31;;;;;;;;;;;;;;;;;;;;;
2023/02/16 07:24:03;;;;;;;0.00;0.00;;;;;;;8.04;100.00;100688.91;5977202;23;20016;-79
2023/02/16 07:26:37;;;;;;;;;;;;;;;8.07;100.00;100691.13;6074692;23;19999;-78
2023/02/16 07:29:06;;;;;;;0.00;0.00;;;;;;;7.96;100.00;100656.63;6189386;23;19896;-77
2023/02/16 07:31:31;;;;;;;0.00;0.00;;;;;;;8.06;100.00;100664.97;6186401;23;20012;-77
2023/02/16 07:33:57;;;;;;;0.00;0.00;;;;;;;8.16;100.00;100675.22;6164683;23;20000;-78
2023/02/16 07:36:23;;;;;;;0.00;0.00;;;;;;;8.16;100.00;100667.06;6138761;23;20035;-78
2023/02/16 07:38:49;;;;;;;0.00;0.00;;;;;;;8.03;100.00;100670.88;6166721;23;20009;-78
2023/02/16 07:41:15;;;;;;;0.00;0.00;;;;;;;8.06;100.00;100669.59;6164150;23;20020;-77
2023/02/16 07:43:41;;;;;;;0.00;0.00;;;;;;;8.11;100.00;100681.41;6163637;23;20012;-78
2023/02/16 07:46:07;;;;;;;0.00;0.00;;;;;;;8.10;100.00;100652.50;6140084;23;20020;-77
2023/02/16 07:48:32;;;;;;;0.00;0.00;;;;;;;8.07;100.00;100668.53;6187539;23;20371;-78
2023/02/16 07:51:00;;;;;;;0.00;0.00;;;;;;;8.16;100.00;100673.34;6162178;23;20005;-78
2023/02/16 07:53:25;;;;;;;0.00;0.00;;;;;;;8.27;100.00;100689.88;6113081;23;20001;-78
2023/02/16 07:55:51;;;;;;;0.00;0.00;;;;;;;8.28;100.00;100705.13;6115223;23;20372;-76
2023/02/16 07:58:28;;;;;;;0.00;0.00;;;;;;;8.24;100.00;100684.91;6161169;23;20000;-76
2023/02/16 08:01:07;;;;;;;0.00;0.00;;;;;;;8.34;100.00;100693.28;6164981;23;20016;-78
2023/02/16 08:03:41;;;;;;;0.00;0.00;;;;;;;8.29;100.00;100679.56;6164071;23;20012;-81
2023/02/16 08:06:07;;;;;;;0.00;0.00;;;;;;;8.43;100.00;100702.72;6168883;23;20032;-78
2023/02/16 08:08:34;;;;;;;0.00;0.00;;;;;;;8.46;100.00;100701.44;6162195;23;20084;-77
2023/02/16 08:10:59;;;;;;;0.00;0.00;;;;;;;8.37;100.00;100690.06;6191124;23;20328;-79
2023/02/16 08:13:25;;;;;;;0.00;0.00;;;;;;;8.51;100.00;100696.06;6118833;23;20005;-79
2023/02/16 08:15:50;;;;;;;0.00;0.00;;;;;;;8.54;100.00;100707.31;6135234;23;20014;-78
2023/02/16 08:18:16;;;;;;;0.00;0.00;;;;;;;8.55;100.00;100703.47;6166524;23;20084;-78
2023/02/16 08:20:42;;;;;;;0.00;0.00;;;;;;;8.54;100.00;100685.50;6163824;23;20013;-79
2023/02/16 08:23:09;;;;;;;0.00;0.00;;;;;;;8.67;100.00;100699.88;6166952;23;20039;-80
2023/02/16 08:25:35;;;;;;;0.00;0.00;;;;;;;8.60;100.00;100691.03;6161943;23;20001;-77
2023/02/16 08:28:01;;;;;;;0.00;0.00;;;;;;;8.68;100.00;100701.53;6164210;23;20054;-79
2023/02/16 08:30:26;;;;;;;0.00;0.00;;;;;;;8.51;100.00;100669.63;6164433;23;20084;-80
2023/02/16 08:32:55;;;;;;;0.00;0.00;;;;;;;8.60;100.00;100688.28;6136681;23;20013;-82
2023/02/16 08:35:24;;;;;;;0.00;0.00;;;;;;;8.60;100.00;100682.84;6141028;23;20092;-81
2023/02/16 08:38:17;;;;;;;;;;;;;;;;;;;;;
2023/02/16 08:41:11;;;;;;;0.00;0.00;;;;;;;8.56;100.00;100666.16;6191814;23;20032;-77
2023/02/16 08:43:39;;;;;;;0.00;0.00;;;;;;;8.68;100.00;100686.00;6152583;23;20005;-78
2023/02/16 08:46:17;;;;;;;;;;;;;;;;;;;;;
2023/02/16 08:48:44;;;;;;;0.00;0.00;;;;;;;8.77;100.00;100710.94;6194342;23;20401;-78
2023/02/16 08:51:29;;;;;;;;;;;;;;;;;;;;;
2023/02/16 08:54:11;;;;;;;;;;;;;;;;;;;;;
2023/02/16 08:56:48;;;;;;;;;;;;;;;;;;;;;
2023/02/16 08:59:18;;;;;;;0.00;0.00;;;;;;;8.81;100.00;100665.75;6191529;23;20028;-78
2023/02/16 09:01:44;;;;;;;0.00;0.00;;;;;;;8.94;100.00;100689.16;6164913;23;20012;-79
2023/02/16 09:04:10;;;;;;;0.00;0.00;;;;;;;9.20;100.00;100706.72;6161649;23;20807;-79
2023/02/16 09:06:41;;;;;;;0.00;0.00;;;;;;;9.26;100.00;100705.72;6165857;23;20009;-79
2023/02/16 09:09:07;;;;;;;0.00;0.00;;;;;;;9.28;100.00;100704.66;6163317;23;20073;-79
2023/02/16 09:11:34;;;;;;;0.00;0.00;;;;;;;9.28;100.00;100688.28;6168829;23;20008;-79
2023/02/16 09:14:00;;;;;;;0.00;0.00;;;;;;;9.35;100.00;100688.94;6144098;23;20043;-79
2023/02/16 09:16:32;;;;;;;0.00;0.00;;;;;;;9.39;100.00;100695.53;6167430;23;20008;-79
2023/02/16 09:19:01;;;;;;;0.00;0.00;;;;;;;9.37;100.00;100686.75;6165904;23;20005;-80
2023/02/16 09:21:31;;;;;;;0.00;0.00;;;;;;;9.31;100.00;100671.41;6137488;23;20005;-77
2023/02/16 09:23:58;;;;;;;0.00;0.00;;;;;;;9.48;100.00;100710.41;6141219;23;20013;-78
2023/02/16 09:26:24;;;;;;;0.00;0.00;;;;;;;9.47;100.00;100702.47;6135788;23;20028;-77
2023/02/16 09:28:50;;;;;;;0.00;0.00;;;;;;;9.49;100.00;100700.31;6188279;23;20005;-77
2023/02/16 09:31:16;;;;;;;0.00;0.00;;;;;;;9.60;100.00;100692.00;6141743;23;20100;-79
2023/02/16 09:33:42;;;;;;;0.00;0.00;;;;;;;9.81;100.00;100681.31;6191519;23;20001;-79
2023/02/16 09:36:10;;;;;;;0.00;0.00;;;;;;;10.01;100.00;100674.47;6163981;23;20005;-77
2023/02/16 09:38:41;;;;;;;0.03;0.03;;;;;;;10.03;100.00;100678.59;6164410;23;20024;-78
2023/02/16 09:41:14;;;;;;;0.00;0.00;;;;;;;10.14;100.00;100679.53;6138421;23;20009;-78
2023/02/16 09:44:11;;;;;;;0.00;0.00;;;;;;;10.35;100.00;100693.44;6140802;23;20005;-80
2023/02/16 09:46:38;;;;;;;0.00;0.00;;;;;;;10.40;100.00;100694.31;6160827;23;20035;-76
2023/02/16 09:49:04;;;;;;;0.00;0.00;;;;;;;10.56;100.00;100703.50;6164523;23;20025;-76
2023/02/16 09:51:54;;;;;;;0.00;0.00;;;;;;;10.60;100.00;100699.16;6162020;23;20005;-77
2023/02/16 09:54:47;;;;;;;0.00;0.00;;;;;;;10.71;100.00;100710.19;6165304;23;20004;-78
2023/02/16 09:57:27;;;;;;;0.00;0.00;;;;;;;10.70;100.00;100714.00;6161242;23;20035;-77
2023/02/16 10:00:05;;;;;;;0.00;0.00;;;;;;;10.70;100.00;100698.41;6168820;23;20494;-80
2023/02/16 10:02:42;;;;;;;0.00;0.00;;;;;;;10.84;100.00;100701.53;6168531;23;19989;-80
2023/02/16 10:05:17;;;;;;;0.00;0.00;;;;;;;10.94;100.00;100707.09;6168630;23;20005;-79
2023/02/16 10:08:15;;;;;;;0.00;0.00;;;;;;;10.92;100.00;100712.03;6158868;23;20088;-78
2023/02/16 10:10:49;;;;;;;0.00;0.00;;;;;;;10.95;100.00;100711.50;6161668;23;20423;-77
2023/02/16 10:14:03;;;;;;;;;;;;;;;;;;;;;
2023/02/16 10:16:36;;;;;;;0.00;0.00;;;;;;;11.13;100.00;100706.69;6192397;23;20032;-81
2023/02/16 10:19:22;;;;;;;0.00;0.00;;;;;;;11.22;100.00;100709.78;6165758;23;20005;-78
2023/02/16 10:21:55;;;;;;;0.00;0.00;;;;;;;11.34;100.00;100724.88;6162546;23;20431;-78
2023/02/16 10:24:23;;;;;;;0.00;0.00;;;;;;;11.60;100.00;100716.84;6158676;23;20036;-78
2023/02/16 10:27:15;;;;;;;0.00;0.00;;;;;;;11.77;100.00;100710.34;6161992;23;20122;-78
2023/02/16 10:29:40;;;;;;;0.00;0.00;;;;;;;12.01;100.00;100724.47;6161164;23;20262;-78
2023/02/16 10:32:29;;;;;;;0.00;0.00;;;;;;;12.30;100.00;100722.06;6139161;23;20080;-78
2023/02/16 10:35:47;;;;;;;0.00;0.00;;;;;;;12.95;100.00;100724.34;6159947;23;20001;-79
2023/02/16 10:38:30;;;;;;;0.00;0.00;;;;;;;13.52;100.00;100740.78;6149714;23;20013;-78
2023/02/16 10:41:41;;;;;;;0.00;0.00;;;;;;;13.46;99.37;100752.91;6161785;23;20742;-79
2023/02/16 10:44:25;;;;;;;0.00;0.00;;;;;;;13.34;99.49;100731.19;6182259;23;20057;-79
2023/02/16 10:46:59;;;;;;;0.00;0.00;;;;;;;13.32;99.37;100739.72;6158729;23;20328;-79
2023/02/16 10:49:25;;;;;;;0.00;0.00;;;;;;;13.21;98.80;100716.09;6162376;23;20012;-80
2023/02/16 10:51:54;;;;;;;0.00;0.00;;;;;;;13.45;98.69;100735.59;6163598;23;20234;-79
2023/02/16 10:54:26;;;;;;;0.00;0.00;;;;;;;13.70;96.71;100744.88;6161930;23;20451;-80
2023/02/16 10:56:58;;;;;;;0.00;0.00;;;;;;;13.82;95.81;100720.66;6193651;23;20007;-80
2023/02/16 10:59:25;;;;;;;0.00;0.00;;;;;;;14.01;93.98;100737.34;6177793;23;20004;-79
2023/02/16 11:02:15;;;;;;;0.00;0.00;;;;;;;13.99;94.02;100736.81;6177074;23;20396;-80
2023/02/16 11:04:43;;;;;;;0.00;0.00;;;;;;;13.94;93.35;100758.81;6192931;23;20001;-79
2023/02/16 11:07:13;;;;;;;0.00;0.00;;;;;;;13.99;93.68;100757.97;6165045;23;20005;-79
2023/02/16 11:09:40;;;;;;;0.00;0.00;;;;;;;13.85;93.11;100757.75;6168123;23;19989;-80
2023/02/16 11:12:35;;;;;;;0.00;0.00;;;;;;;13.91;92.28;100756.63;6165125;23;20488;-79
2023/02/16 11:15:23;;;;;;;0.00;0.00;;;;;;;14.17;90.63;100762.03;6170583;23;20077;-86
2023/02/16 11:18:06;;;;;;;;;;;;;;;;;;;;;
2023/02/16 11:20:43;;;;;;;0.00;0.00;;;;;;;13.43;89.96;100774.34;6200616;23;20005;-84
2023/02/16 11:23:26;;;;;;;0.00;0.00;;;;;;;13.09;93.04;100774.84;6169417;23;20009;-86
2023/02/16 11:25:55;;;;;;;0.00;0.00;;;;;;;12.85;94.37;100785.56;6170469;23;20439;-81
2023/02/16 11:28:39;;;;;;;0.00;0.00;;;;;;;12.56;96.18;100761.34;6161782;23;20516;-83
2023/02/16 11:31:20;;;;;;;0.00;0.00;;;;;;;12.78;97.22;100784.19;6164501;23;20039;-81
2023/02/16 11:34:25;;;;;;;0.00;0.00;;;;;;;12.99;96.77;100793.25;6163574;23;20012;-80
2023/02/16 11:36:53;;;;;;;0.00;0.00;;;;;;;13.45;95.38;100787.78;6162617;23;20428;-80
2023/02/16 11:39:24;;;;;;;0.00;0.00;;;;;;;13.70;92.46;100795.16;6165432;23;20012;-79
2023/02/16 11:41:56;;;;;;;0.00;0.00;;;;;;;13.87;89.37;100789.38;6162382;23;20072;-80
2023/02/16 11:44:36;;;;;;;0.00;0.00;;;;;;;13.97;88.45;100794.00;6164586;23;20001;-80
2023/02/16 11:47:06;;;;;;;0.00;0.00;;;;;;;13.87;88.58;100788.53;6161434;23;20004;-80
2023/02/16 11:49:37;;;;;;;0.00;0.00;;;;;;;13.94;88.92;100789.06;6164121;23;20017;-80
2023/02/16 11:52:23;;;;;;;0.00;0.00;;;;;;;13.96;87.32;100773.94;6161124;23;20024;-80
2023/02/16 11:54:54;;;;;;;0.00;0.00;;;;;;;13.92;86.67;100763.78;6165225;23;20008;-80
2023/02/16 11:57:32;;;;;;;0.00;0.00;;;;;;;13.80;85.75;100750.34;6188650;23;20001;-79
2023/02/16 12:00:00;;;;;;;0.00;0.00;;;;;;;13.90;86.64;100746.72;6167189;23;20029;-80
2023/02/16 12:02:34;;;;;;;0.00;0.00;;;;;;;14.31;86.72;100749.31;6160968;23;20009;-81
2023/02/16 12:05:20;;;;;;;0.00;0.00;;;;;;;14.90;83.40;100741.25;6164346;23;20009;-81
2023/02/16 12:08:08;;;;;;;0.00;0.00;;;;;;;15.94;78.71;100733.63;6162889;23;20000;-81
2023/02/16 12:10:44;;;;;;;0.00;0.00;;;;;;;18.30;71.46;100724.13;6164825;23;20012;-80
2023/02/16 12:13:21;;;;;;;0.00;0.00;;;;;;;20.00;62.22;100735.66;6165661;23;20040;-81
2023/02/16 12:15:59;;;;;;;0.00;0.00;;;;;;;22.19;57.19;100721.41;6165351;23;20415;-79
2023/02/16 12:18:58;;;;;;;0.00;0.00;;;;;;;23.33;49.43;100726.84;6162056;23;20351;-79
2023/02/16 12:21:44;;;;;;;0.00;0.00;;;;;;;22.94;49.73;100720.66;6165852;23;20011;-80
2023/02/16 12:24:16;;;;;;;0.00;0.00;;;;;;;23.21;47.66;100710.88;6166516;23;20005;-80
2023/02/16 12:26:55;;;;;;;0.00;0.00;;;;;;;22.58;48.87;100713.78;6163191;23;20009;-81
2023/02/16 12:29:33;;;;;;;0.00;0.00;;;;;;;21.41;50.23;100696.38;6163982;23;20035;-80
2023/02/16 12:32:21;;;;;;;0.00;0.00;;;;;;;19.32;54.47;100706.16;6161393;23;20055;-80
2023/02/16 12:35:02;;;;;;;0.00;0.00;;;;;;;17.72;60.80;100708.97;6164029;23;20431;-77
2023/02/16 12:37:46;;;;;;;0.00;0.00;;;;;;;16.88;65.34;100713.56;6164626;23;20005;-75
2023/02/16 12:40:12;;;;;;;0.00;0.00;;;;;;;16.98;66.58;100706.19;6161645;23;19997;-78
2023/02/16 12:43:15;;;;;;;0.00;0.00;;;;;;;17.03;66.79;100718.00;6164028;23;20020;-76
2023/02/16 12:45:52;;;;;;;0.00;0.00;;;;;;;16.63;67.74;100692.66;6160763;23;20021;-77
2023/02/16 12:48:44;;;;;;;0.00;0.00;;;;;;;16.60;66.63;100700.72;6166643;23;20510;-76
2023/02/16 12:51:41;;;;;;;0.00;0.00;;;;;;;16.44;67.51;100709.25;6164206;23;20472;-77
2023/02/16 12:54:59;;;;;;;0.00;0.00;;;;;;;15.84;68.33;100696.81;6162249;23;20001;-78
2023/02/16 12:57:40;;;;;;;;;;;;;;;;;;;;;
2023/02/16 13:01:20;;;;;;;0.00;0.00;;;;;;;15.82;70.23;100710.06;6192549;23;20047;-78
2023/02/16 13:04:28;;;;;;;0.00;0.00;;;;;;;15.56;69.96;100695.72;6070654;23;20018;-89
2023/02/16 13:07:08;;;;;;;0.00;0.00;;;;;;;15.14;71.01;100692.59;6070957;23;20007;-79
2023/02/16 13:09:55;;;;;;;0.00;0.00;;;;;;;14.98;71.62;100707.56;6163270;23;20005;-85
2023/02/16 13:12:31;;;;;;;0.00;0.00;;;;;;;14.83;72.82;100701.13;6164321;23;19997;-78
2023/02/16 13:15:09;;;;;;;0.00;0.00;;;;;;;14.94;73.33;100701.03;6165880;23;20029;-78
2023/02/16 13:17:41;;;;;;;0.00;0.00;;;;;;;15.25;72.75;100712.56;6163802;23;20035;-77
2023/02/16 13:20:19;;;;;;;0.00;0.00;;;;;;;15.60;70.74;100712.50;6165138;23;20015;-77
2023/02/16 13:23:03;;;;;;;0.00;0.00;;;;;;;15.46;70.11;100710.44;6164312;23;20017;-77
2023/02/16 13:25:51;;;;;;;0.00;0.00;;;;;;;15.10;70.58;100715.47;6164741;23;20144;-78
2023/02/16 13:28:39;;;;;;;0.00;0.00;;;;;;;14.88;71.93;100715.94;6189602;23;19988;-78
2023/02/16 13:31:16;;;;;;;0.00;0.00;;;;;;;14.61;72.50;100711.69;6172436;23;20024;-77
2023/02/16 13:33:55;;;;;;;0.00;0.00;;;;;;;14.43;73.97;100721.47;6198858;23;20040;-77
2023/02/16 13:36:34;;;;;;;0.00;0.00;;;;;;;14.31;75.40;100721.81;6163585;23;20012;-75
2023/02/16 13:39:24;;;;;;;0.00;0.00;;;;;;;14.18;76.30;100722.41;6164754;23;20087;-74
2023/02/16 13:41:54;;;;;;;0.00;0.00;;;;;;;14.02;77.01;100719.75;6160753;23;20001;-77
2023/02/16 13:44:25;;;;;;;0.00;0.00;;;;;;;13.86;77.76;100719.00;6189339;23;20001;-75
2023/02/16 13:46:52;;;;;;;0.00;0.00;;;;;;;13.75;78.73;100720.94;6159955;23;20425;-78
2023/02/16 13:49:27;;;;;;;0.00;0.00;;;;;;;13.83;78.58;100719.56;6188005;23;20409;-76
2023/02/16 13:51:53;;;;;;;0.00;0.00;;;;;;;14.04;78.60;100723.03;6160968;23;20092;-76
2023/02/16 13:54:39;;;;;;;0.00;0.00;;;;;;;14.07;78.22;100710.66;6137836;23;20001;-77
2023/02/16 13:57:11;;;;;;;0.00;0.00;;;;;;;14.21;77.81;100719.13;6159774;23;20092;-76
2023/02/16 13:59:39;;;;;;;0.00;0.00;;;;;;;14.29;77.59;100722.09;6164815;23;20304;-75
2023/02/16 14:02:11;;;;;;;0.00;0.00;;;;;;;14.22;77.80;100707.00;6191030;23;20325;-76
2023/02/16 14:04:37;;;;;;;0.00;0.00;;;;;;;14.30;77.71;100709.16;6164852;23;20095;-76
2023/02/16 14:07:03;;;;;;;0.00;0.00;;;;;;;14.73;77.33;100701.16;6163886;23;20009;-76
2023/02/16 14:09:37;;;;;;;0.00;0.00;;;;;;;15.42;73.69;100709.38;6162405;23;20013;-77
2023/02/16 14:12:32;;;;;;;0.00;0.00;;;;;;;15.47;72.26;100698.28;6165634;23;20005;-79
2023/02/16 14:15:01;;;;;;;0.00;0.00;;;;;;;15.00;72.77;100705.38;6189819;23;20020;-77
2023/02/16 14:17:31;;;;;;;0.00;0.00;;;;;;;14.45;74.48;100689.78;6189930;23;20005;-78
2023/02/16 14:20:28;;;;;;;0.00;0.00;;;;;;;14.27;75.98;100698.72;6162774;23;20008;-77
2023/02/16 14:22:59;;;;;;;0.00;0.00;;;;;;;14.09;76.04;100692.78;6139381;23;20092;-76
2023/02/16 14:25:37;;;;;;;0.00;0.00;;;;;;;14.03;76.90;100691.16;6162640;23;20028;-78
2023/02/16 14:28:34;;;;;;;0.00;0.00;;;;;;;13.91;76.52;100690.66;6160902;23;20364;-77
2023/02/16 14:31:13;;;;;;;0.00;0.00;;;;;;;13.93;77.34;100693.94;6186232;23;20001;-77
2023/02/16 14:33:46;;;;;;;0.00;0.00;;;;;;;14.19;76.97;100691.06;6163227;23;20015;-77
2023/02/16 14:36:20;;;;;;;0.00;0.00;;;;;;;14.26;76.66;100699.81;6160688;23;20001;-77
2023/02/16 14:38:59;;;;;;;;;;;;;;;14.23;75.26;100692.16;6162986;23;20027;-78
2023/02/16 14:41:34;;;;;;;0.00;0.00;;;;;;;14.11;76.20;100706.25;6162473;23;19920;-77
2023/02/16 14:44:08;;;;;;;0.00;0.00;;;;;;;14.18;75.70;100708.66;6164562;23;20013;-78
2023/02/16 14:46:45;;;;;;;;;;;;;;;14.21;75.92;100706.19;6165022;23;20012;-78
2023/02/16 14:49:49;;;;;;;0.00;0.00;;;;;;;14.17;75.53;100709.78;6163968;23;19904;-78
2023/02/16 14:52:46;;;;;;;0.00;0.00;;;;;;;13.85;76.30;100697.28;6104868;23;20011;-78
2023/02/16 14:55:23;;;;;;;0.00;0.00;;;;;;;13.88;76.98;100707.72;6160310;23;20499;-77
2023/02/16 14:58:14;;;;;;;0.00;0.00;;;;;;;13.98;77.17;100707.66;6163467;23;20016;-77
2023/02/16 15:00:44;;;;;;;0.00;0.00;;;;;;;14.34;76.04;100709.41;6160700;23;20083;-78
2023/02/16 15:03:25;;;;;;;0.00;0.00;;;;;;;14.32;75.10;100706.94;6160421;23;20309;-78
2023/02/16 15:06:01;;;;;;;0.00;0.00;;;;;;;14.40;75.63;100706.34;6158940;23;20011;-78
2023/02/16 15:08:33;;;;;;;0.00;0.00;;;;;;;15.12;74.25;100714.06;6162762;23;20032;-78
2023/02/16 15:11:13;;;;;;;0.00;0.00;;;;;;;15.58;71.66;100720.22;6137402;23;19996;-77
2023/02/16 15:13:39;;;;;;;0.00;0.00;;;;;;;16.53;68.42;100718.47;6163928;23;19993;-77
2023/02/16 15:16:06;;;;;;;0.00;0.00;;;;;;;16.44;66.91;100714.78;6187527;23;20849;-77
2023/02/16 15:18:37;;;;;;;0.00;0.00;;;;;;;15.90;66.79;100710.50;6166911;23;20020;-78
2023/02/16 15:21:03;;;;;;;0.00;0.00;;;;;;;15.35;68.72;100717.16;6187420;23;20552;-76
2023/02/16 15:23:33;;;;;;;0.00;0.00;;;;;;;14.84;68.23;100713.75;6163612;23;20005;-77
2023/02/16 15:26:02;;;;;;;0.00;0.00;;;;;;;14.42;70.72;100722.56;6185703;23;20008;-78
2023/02/16 15:28:35;;;;;;;0.00;0.00;;;;;;;14.05;71.31;100730.19;6164401;23;20021;-77
2023/02/16 15:31:16;;;;;;;0.00;0.00;;;;;;;13.75;72.60;100720.94;6164070;23;20001;-78
2023/02/16 15:33:52;;;;;;;0.00;0.00;;;;;;;13.51;73.99;100714.44;6162022;23;19997;-77